Time;durP1;ratioP1;P1;durP2;ratioP2;P2;SDS_P1;SDS_P2;PMS_P1;PMS_P2;Temp;Humidity;BMP_temperature;BMP_pressure;BME280_temperature;BME280_humidity;BME280_pressure;Samples;Min_cycle;Max_cycle;Signal;HPM_P1;HPM_P2
2023/05/11 00:04:49;;;;;;;12.20;5.93;;;;;;;;;;10284498;28;20490;-80
2023/05/11 00:09:50;;;;;;;12.73;6.37;;;;;;;;;;10286466;28;20039;-83
2023/05/11 00:14:51;;;;;;;14.10;6.40;;;;;;;;;;10286365;28;20053;-82
2023/05/11 00:19:52;;;;;;;14.40;6.13;;;;;;;;;;10286524;28;20109;-80
2023/05/11 00:24:53;;;;;;;10.50;5.47;;;;;;;;;;10285494;28;20467;-80
2023/05/11 00:29:54;;;;;;;12.10;6.13;;;;;;;;;;10286608;28;20027;-81
2023/05/11 00:34:55;;;;;;;13.67;7.30;;;;;;;;;;10282312;28;20043;-82
2023/05/11 00:39:56;;;;;;;19.40;8.23;;;;;;;;;;10280669;28;20394;-80
2023/05/11 00:44:58;;;;;;;14.07;6.77;;;;;;;;;;10285680;28;20037;-80
2023/05/11 00:49:59;;;;;;;17.73;7.60;;;;;;;;;;10278804;28;20042;-80
2023/05/11 00:55:00;;;;;;;18.17;7.40;;;;;;;;;;10283512;28;20072;-80
2023/05/11 01:00:02;;;;;;;14.80;6.53;;;;;;;;;;10285206;28;20067;-80
2023/05/11 01:05:03;;;;;;;11.27;5.97;;;;;;;;;;10277142;28;20365;-80
2023/05/11 01:10:13;;;;;;;11.77;5.90;;;;;;;;;;10284794;28;20037;-80
2023/05/11 01:15:21;;;;;;;13.33;5.80;;;;;;;;;;10283654;28;20106;-80
2023/05/11 01:20:24;;;;;;;10.63;5.47;;;;;;;;;;10282213;28;20038;-80
2023/05/11 01:25:44;;;;;;;9.27;5.23;;;;;;;;;;10283432;28;20041;-81
2023/05/11 01:30:54;;;;;;;11.63;5.50;;;;;;;;;;10281249;28;20046;-81
2023/05/11 01:35:56;;;;;;;11.83;5.50;;;;;;;;;;10270715;28;20419;-80
2023/05/11 01:40:58;;;;;;;9.47;5.40;;;;;;;;;;10283276;28;20513;-80
2023/05/11 01:46:01;;;;;;;11.47;5.90;;;;;;;;;;10282600;28;20056;-81
2023/05/11 01:51:02;;;;;;;8.37;5.10;;;;;;;;;;10282241;28;20725;-80
2023/05/11 01:56:04;;;;;;;13.57;6.30;;;;;;;;;;10282432;28;20074;-80
2023/05/11 02:01:06;;;;;;;11.20;6.33;;;;;;;;;;10279367;28;20549;-80
2023/05/11 02:06:07;;;;;;;11.40;5.50;;;;;;;;;;10266632;28;20081;-81
2023/05/11 02:11:09;;;;;;;14.97;6.00;;;;;;;;;;10264553;28;20038;-80
2023/05/11 02:16:10;;;;;;;10.10;6.33;;;;;;;;;;10281043;28;20048;-80
2023/05/11 02:21:12;;;;;;;12.83;6.53;;;;;;;;;;10278211;28;20034;-80
2023/05/11 02:26:14;;;;;;;9.93;5.97;;;;;;;;;;10280336;28;20162;-81
2023/05/11 02:31:17;;;;;;;9.43;6.27;;;;;;;;;;10280237;28;20443;-82
2023/05/11 02:36:19;;;;;;;11.37;6.27;;;;;;;;;;10259438;28;20478;-80
2023/05/11 02:41:23;;;;;;;8.97;6.03;;;;;;;;;;10280806;28;20031;-80
2023/05/11 02:46:27;;;;;;;11.43;6.10;;;;;;;;;;10262346;28;20632;-80
2023/05/11 02:51:30;;;;;;;12.37;6.47;;;;;;;;;;10280096;28;20101;-80
2023/05/11 02:56:31;;;;;;;9.30;5.53;;;;;;;;;;10263793;28;20070;-82
2023/05/11 03:01:33;;;;;;;9.63;6.67;;;;;;;;;;10250416;28;20134;-80
2023/05/11 03:06:35;;;;;;;10.83;6.10;;;;;;;;;;10240586;28;20380;-82
2023/05/11 03:11:37;;;;;;;14.70;7.33;;;;;;;;;;10222337;29;20054;-80
2023/05/11 03:16:38;;;;;;;12.57;5.57;;;;;;;;;;10240405;28;20035;-79
2023/05/11 03:21:39;;;;;;;9.63;6.30;;;;;;;;;;10245371;28;20720;-80
2023/05/11 03:26:41;;;;;;;10.57;6.40;;;;;;;;;;10239614;28;20073;-81
2023/05/11 03:31:42;;;;;;;12.27;6.93;;;;;;;;;;10220480;29;20024;-78
2023/05/11 03:36:44;;;;;;;12.07;6.40;;;;;;;;;;10245921;28;20042;-80
2023/05/11 03:41:49;;;;;;;9.33;5.80;;;;;;;;;;10246112;29;20035;-79
2023/05/11 03:46:50;;;;;;;10.57;6.40;;;;;;;;;;10245893;28;20036;-79
2023/05/11 03:51:52;;;;;;;10.93;6.50;;;;;;;;;;10240035;28;20534;-80
2023/05/11 03:56:53;;;;;;;10.17;5.80;;;;;;;;;;10222072;28;20822;-80
2023/05/11 04:01:54;;;;;;;11.23;6.00;;;;;;;;;;10278444;28;20061;-83
2023/05/11 04:06:55;;;;;;;14.87;6.47;;;;;;;;;;10276336;28;20025;-81
2023/05/11 04:11:56;;;;;;;14.03;6.33;;;;;;;;;;10275261;28;20042;-80
2023/05/11 04:16:58;;;;;;;11.57;7.23;;;;;;;;;;10282345;28;20088;-81
2023/05/11 04:21:59;;;;;;;11.63;6.53;;;;;;;;;;10287126;28;20027;-82
2023/05/11 04:27:00;;;;;;;11.67;6.67;;;;;;;;;;10285662;28;20031;-81
2023/05/11 04:32:01;;;;;;;11.33;6.53;;;;;;;;;;10285953;28;20065;-80
2023/05/11 04:37:06;;;;;;;13.97;7.00;;;;;;;;;;10285542;28;20126;-80
2023/05/11 04:42:07;;;;;;;12.63;7.07;;;;;;;;;;10268101;28;20043;-81
2023/05/11 04:47:08;;;;;;;11.00;5.97;;;;;;;;;;10284450;28;20019;-80
2023/05/11 04:52:09;;;;;;;12.57;6.50;;;;;;;;;;10285142;28;20034;-80
2023/05/11 04:57:10;;;;;;;13.27;6.37;;;;;;;;;;10285793;28;20082;-81
2023/05/11 05:02:11;;;;;;;10.37;6.63;;;;;;;;;;10284161;28;20053;-80
2023/05/11 05:07:12;;;;;;;13.83;7.27;;;;;;;;;;10284687;28;20086;-80
2023/05/11 05:12:13;;;;;;;23.17;9.90;;;;;;;;;;10284260;28;20026;-79
2023/05/11 05:17:14;;;;;;;16.83;9.13;;;;;;;;;;10283901;28;20042;-80
2023/05/11 05:22:15;;;;;;;23.87;11.30;;;;;;;;;;10285121;28;20034;-80
2023/05/11 05:27:16;;;;;;;25.48;12.35;;;;;;;;;;10283441;28;20049;-81
2023/05/11 05:32:18;;;;;;;26.33;12.65;;;;;;;;;;10266286;28;20030;-81
2023/05/11 05:37:19;;;;;;;26.15;12.23;;;;;;;;;;10283205;28;20092;-80
2023/05/11 05:42:21;;;;;;;24.80;12.50;;;;;;;;;;10283107;28;20026;-80
2023/05/11 05:47:22;;;;;;;23.92;11.77;;;;;;;;;;10283016;28;20510;-80
2023/05/11 05:52:23;;;;;;;24.60;12.10;;;;;;;;;;10282737;28;20023;-82
2023/05/11 05:57:24;;;;;;;25.80;10.80;;;;;;;;;;10265282;28;20038;-80
2023/05/11 06:02:25;;;;;;;20.88;10.32;;;;;;;;;;10282553;28;20051;-81
2023/05/11 06:07:26;;;;;;;15.85;8.38;;;;;;;;;;10282268;28;20042;-81
2023/05/11 06:12:27;;;;;;;14.25;6.65;;;;;;;;;;10282618;28;20466;-80
2023/05/11 06:17:28;;;;;;;17.23;9.27;;;;;;;;;;10281377;28;20042;-80
2023/05/11 06:22:29;;;;;;;26.08;12.23;;;;;;;;;;10281446;28;20047;-81
2023/05/11 06:27:30;;;;;;;21.90;10.50;;;;;;;;;;10282020;28;20510;-81
2023/05/11 06:32:32;;;;;;;10.27;6.13;;;;;;;;;;10275598;28;20038;-81
2023/05/11 06:37:34;;;;;;;12.68;5.95;;;;;;;;;;10275317;28;20038;-81
2023/05/11 06:42:35;;;;;;;16.63;7.57;;;;;;;;;;10281225;28;20053;-80
2023/05/11 06:47:36;;;;;;;11.55;6.03;;;;;;;;;;10268609;28;20038;-83
2023/05/11 06:52:37;;;;;;;10.02;5.55;;;;;;;;;;10281303;28;20488;-81
2023/05/11 06:57:38;;;;;;;7.72;4.55;;;;;;;;;;10280454;28;20042;-82
2023/05/11 07:02:39;;;;;;;11.32;4.80;;;;;;;;;;10280566;28;20055;-81
2023/05/11 07:07:40;;;;;;;7.78;4.68;;;;;;;;;;10280228;28;20524;-81
2023/05/11 07:12:41;;;;;;;12.25;5.05;;;;;;;;;;10285153;28;20054;-82
2023/05/11 07:17:46;;;;;;;8.07;4.40;;;;;;;;;;10288378;28;20035;-83
2023/05/11 07:22:47;;;;;;;7.70;4.10;;;;;;;;;;10288437;28;20031;-81
2023/05/11 07:27:48;;;;;;;8.85;4.32;;;;;;;;;;10288186;28;20035;-82
2023/05/11 07:32:49;;;;;;;11.25;4.93;;;;;;;;;;10270417;28;20045;-81
2023/05/11 07:37:50;;;;;;;11.27;4.90;;;;;;;;;;10270537;28;20035;-81
2023/05/11 07:42:52;;;;;;;11.73;5.13;;;;;;;;;;10270946;28;20038;-82
2023/05/11 07:47:53;;;;;;;8.68;4.78;;;;;;;;;;10286725;28;20042;-81
2023/05/11 07:52:54;;;;;;;13.82;6.03;;;;;;;;;;10287162;28;20029;-81
2023/05/11 07:57:56;;;;;;;10.68;5.80;;;;;;;;;;10286838;28;20133;-81
2023/05/11 08:02:57;;;;;;;18.50;6.72;;;;;;;;;;10287369;28;20018;-81
2023/05/11 08:07:58;;;;;;;11.82;5.82;;;;;;;;;;10287096;28;20019;-81
2023/05/11 08:12:59;;;;;;;12.93;5.53;;;;;;;;;;10287135;28;20467;-81
2023/05/11 08:18:01;;;;;;;13.07;6.10;;;;;;;;;;10286136;28;20037;-82
2023/05/11 08:23:02;;;;;;;13.55;6.20;;;;;;;;;;10286432;28;20030;-81
2023/05/11 08:28:03;;;;;;;8.38;4.32;;;;;;;;;;10268838;28;20077;-81
2023/05/11 08:33:04;;;;;;;10.88;4.90;;;;;;;;;;10286348;28;20031;-81
2023/05/11 08:38:05;;;;;;;9.73;5.00;;;;;;;;;;10272738;28;20039;-81
2023/05/11 08:43:06;;;;;;;7.60;4.43;;;;;;;;;;10285168;28;20027;-81
2023/05/11 08:48:07;;;;;;;9.18;4.47;;;;;;;;;;10286092;28;20027;-82
2023/05/11 08:53:08;;;;;;;6.82;3.55;;;;;;;;;;10285048;28;20459;-82
2023/05/11 08:58:09;;;;;;;7.75;3.72;;;;;;;;;;10285125;28;20030;-80
2023/05/11 09:03:11;;;;;;;6.65;4.55;;;;;;;;;;10285054;28;20033;-81
2023/05/11 09:08:13;;;;;;;9.73;4.35;;;;;;;;;;10284205;28;20502;-82
2023/05/11 09:13:14;;;;;;;10.05;4.20;;;;;;;;;;10284556;28;20033;-83
2023/05/11 09:18:15;;;;;;;7.13;3.75;;;;;;;;;;10271270;28;20035;-80
2023/05/11 09:23:16;;;;;;;7.75;3.85;;;;;;;;;;10284480;28;20500;-81
2023/05/11 09:28:21;;;;;;;6.53;3.40;;;;;;;;;;10284307;28;20116;-81
2023/05/11 09:33:23;;;;;;;5.88;3.53;;;;;;;;;;10282380;28;20031;-83
2023/05/11 09:38:24;;;;;;;6.22;3.75;;;;;;;;;;10283358;28;20114;-81
2023/05/11 09:43:27;;;;;;;6.93;3.58;;;;;;;;;;10283205;28;20034;-81
2023/05/11 09:48:31;;;;;;;5.43;2.92;;;;;;;;;;10283233;28;20035;-81
2023/05/11 09:53:44;;;;;;;4.83;2.63;;;;;;;;;;10282947;28;20110;-83
2023/05/11 09:58:48;;;;;;;4.78;2.50;;;;;;;;;;10264959;28;20066;-81
2023/05/11 10:03:52;;;;;;;4.82;3.03;;;;;;;;;;10282726;28;20037;-82
2023/05/11 10:08:54;;;;;;;3.70;2.20;;;;;;;;;;10282546;28;20033;-81
2023/05/11 10:13:55;;;;;;;3.13;2.30;;;;;;;;;;10269569;28;20830;-81
2023/05/11 10:18:56;;;;;;;3.92;2.20;;;;;;;;;;10281540;28;20497;-82
2023/05/11 10:23:58;;;;;;;3.15;2.00;;;;;;;;;;10282512;28;20058;-82
2023/05/11 10:29:02;;;;;;;3.47;2.30;;;;;;;;;;10281699;28;20490;-80
2023/05/11 10:34:03;;;;;;;5.40;2.22;;;;;;;;;;10281906;28;20483;-81
2023/05/11 10:39:04;;;;;;;4.13;2.45;;;;;;;;;;10281054;28;20042;-83
2023/05/11 10:44:23;;;;;;;5.90;2.28;;;;;;;;;;10281294;28;20053;-81
2023/05/11 10:49:37;;;;;;;4.22;2.17;;;;;;;;;;10280573;28;20041;-82
2023/05/11 10:54:40;;;;;;;4.10;2.20;;;;;;;;;;10280981;28;20026;-82
2023/05/11 10:59:50;;;;;;;5.03;2.45;;;;;;;;;;10280902;28;20050;-82
2023/05/11 11:04:51;;;;;;;5.07;2.20;;;;;;;;;;10280295;28;20019;-82
2023/05/11 11:09:55;;;;;;;3.47;1.75;;;;;;;;;;10281278;28;20039;-82
2023/05/11 11:14:57;;;;;;;4.30;2.17;;;;;;;;;;10243485;28;20049;-81
2023/05/11 11:20:03;;;;;;;2.83;1.90;;;;;;;;;;10280740;28;20034;-81
2023/05/11 11:25:11;;;;;;;3.20;2.10;;;;;;;;;;10280521;28;20023;-81
2023/05/11 11:30:15;;;;;;;4.85;2.40;;;;;;;;;;10280321;28;20430;-80
2023/05/11 11:35:35;;;;;;;4.63;2.10;;;;;;;;;;10280508;28;20043;-80
2023/05/11 11:40:36;;;;;;;3.53;2.10;;;;;;;;;;10280587;28;20050;-82
2023/05/11 11:45:38;;;;;;;3.00;1.88;;;;;;;;;;10280134;28;20034;-80
2023/05/11 11:50:43;;;;;;;2.50;1.65;;;;;;;;;;10280024;28;20027;-81
2023/05/11 11:55:46;;;;;;;4.20;2.00;;;;;;;;;;10279952;28;20038;-80
2023/05/11 12:00:47;;;;;;;4.18;2.00;;;;;;;;;;10286654;28;20055;-81
2023/05/11 12:05:51;;;;;;;4.85;2.08;;;;;;;;;;10288015;28;20031;-83
2023/05/11 12:10:55;;;;;;;4.05;2.30;;;;;;;;;;10267195;28;20030;-80
2023/05/11 12:16:13;;;;;;;4.57;2.33;;;;;;;;;;10274991;28;20043;-79
2023/05/11 12:21:20;;;;;;;7.70;2.53;;;;;;;;;;10271154;28;20042;-79
2023/05/11 12:26:22;;;;;;;4.07;2.70;;;;;;;;;;10285260;28;20039;-80
2023/05/11 12:31:23;;;;;;;4.07;2.47;;;;;;;;;;10285905;28;20502;-80
2023/05/11 12:36:24;;;;;;;5.18;2.42;;;;;;;;;;10285179;28;20181;-78
2023/05/11 12:41:26;;;;;;;4.72;2.45;;;;;;;;;;10283808;28;20492;-80
2023/05/11 12:46:27;;;;;;;3.47;2.45;;;;;;;;;;10282864;28;20063;-79
2023/05/11 12:51:45;;;;;;;4.20;2.30;;;;;;;;;;10283856;28;20042;-79
2023/05/11 12:56:46;;;;;;;8.18;2.50;;;;;;;;;;10281921;28;20035;-80
2023/05/11 13:01:47;;;;;;;8.00;2.88;;;;;;;;;;10275025;28;20077;-80
2023/05/11 13:06:48;;;;;;;3.72;2.30;;;;;;;;;;10283484;28;20066;-80
2023/05/11 13:11:50;;;;;;;5.57;2.63;;;;;;;;;;10283906;28;20034;-80
2023/05/11 13:16:54;;;;;;;4.43;2.63;;;;;;;;;;10283889;28;20077;-82
2023/05/11 13:21:56;;;;;;;3.50;2.60;;;;;;;;;;10283853;28;20031;-80
2023/05/11 13:26:57;;;;;;;4.15;2.30;;;;;;;;;;10282825;28;20027;-81
2023/05/11 13:31:58;;;;;;;6.45;2.55;;;;;;;;;;10273446;28;20147;-81
2023/05/11 13:36:59;;;;;;;7.97;3.42;;;;;;;;;;10281879;28;20042;-80
2023/05/11 13:42:00;;;;;;;8.60;4.22;;;;;;;;;;10281231;28;20035;-81
2023/05/11 13:47:01;;;;;;;4.07;2.50;;;;;;;;;;10279938;28;20329;-80
2023/05/11 13:52:03;;;;;;;5.30;2.58;;;;;;;;;;10276402;28;20046;-79
2023/05/11 13:57:04;;;;;;;3.47;2.03;;;;;;;;;;10281111;28;20069;-80
2023/05/11 14:02:05;;;;;;;2.97;2.03;;;;;;;;;;10239099;28;20055;-80
2023/05/11 14:07:06;;;;;;;3.67;2.20;;;;;;;;;;10239542;29;20224;-80
2023/05/11 14:12:07;;;;;;;3.80;2.15;;;;;;;;;;10236159;28;20030;-80
2023/05/11 14:17:09;;;;;;;2.35;1.90;;;;;;;;;;10238495;29;20050;-80
2023/05/11 14:22:10;;;;;;;5.45;2.00;;;;;;;;;;10240555;28;20042;-80
2023/05/11 14:27:11;;;;;;;5.93;3.47;;;;;;;;;;10241142;28;20051;-80
2023/05/11 14:32:12;;;;;;;4.03;2.42;;;;;;;;;;10237926;29;20433;-79
2023/05/11 14:37:13;;;;;;;4.07;2.22;;;;;;;;;;10241521;28;20039;-83
2023/05/11 14:42:14;;;;;;;8.88;4.07;;;;;;;;;;10241515;29;20459;-81
2023/05/11 14:47:15;;;;;;;3.42;1.70;;;;;;;;;;10243595;28;20094;-79
2023/05/11 14:52:16;;;;;;;4.03;2.47;;;;;;;;;;10252363;28;20031;-80
2023/05/11 14:57:17;;;;;;;4.07;2.00;;;;;;;;;;10240775;29;20403;-81
2023/05/11 15:02:19;;;;;;;3.40;2.05;;;;;;;;;;10275706;28;20055;-79
2023/05/11 15:07:20;;;;;;;2.08;1.77;;;;;;;;;;10273569;28;20560;-80
2023/05/11 15:12:21;;;;;;;3.30;1.83;;;;;;;;;;10279495;28;20035;-79
2023/05/11 15:17:22;;;;;;;3.17;1.80;;;;;;;;;;10280954;28;20030;-81
2023/05/11 15:22:23;;;;;;;2.28;1.95;;;;;;;;;;10291651;28;20058;-79
2023/05/11 15:27:24;;;;;;;3.42;1.90;;;;;;;;;;10279857;28;20410;-80
2023/05/11 15:32:25;;;;;;;6.55;2.10;;;;;;;;;;10280226;28;20035;-82
2023/05/11 15:37:27;;;;;;;3.15;1.83;;;;;;;;;;10290876;28;20055;-79
2023/05/11 15:42:28;;;;;;;3.85;2.85;;;;;;;;;;10287114;28;20031;-80
2023/05/11 15:47:29;;;;;;;4.80;2.42;;;;;;;;;;10291318;28;20045;-80
2023/05/11 15:52:30;;;;;;;5.13;3.20;;;;;;;;;;10298799;28;20042;-78
2023/05/11 15:57:31;;;;;;;4.97;1.85;;;;;;;;;;10286250;28;20046;-81
2023/05/11 16:02:32;;;;;;;6.18;3.05;;;;;;;;;;10293692;28;20061;-78
2023/05/11 16:07:33;;;;;;;3.45;2.00;;;;;;;;;;10296146;28;20038;-79
2023/05/11 16:12:34;;;;;;;16.67;10.15;;;;;;;;;;10276964;28;20042;-81
2023/05/11 16:17:35;;;;;;;9.07;4.40;;;;;;;;;;10284674;28;20047;-79
2023/05/11 16:22:37;;;;;;;7.32;2.70;;;;;;;;;;10287127;28;20034;-82
2023/05/11 16:27:38;;;;;;;6.53;2.92;;;;;;;;;;10294845;28;20509;-82
2023/05/11 16:32:39;;;;;;;18.45;9.75;;;;;;;;;;10292875;28;20110;-81
2023/05/11 16:37:41;;;;;;;9.10;5.18;;;;;;;;;;10293012;28;20805;-79
2023/05/11 16:42:42;;;;;;;13.13;6.20;;;;;;;;;;10281959;28;20038;-81
2023/05/11 16:47:44;;;;;;;5.43;2.00;;;;;;;;;;10283516;28;20122;-80
2023/05/11 16:52:45;;;;;;;9.65;4.45;;;;;;;;;;10284280;28;20096;-79
2023/05/11 16:57:46;;;;;;;12.82;6.43;;;;;;;;;;10281598;28;20101;-78
2023/05/11 17:02:48;;;;;;;25.15;15.38;;;;;;;;;;10286565;28;20145;-78
2023/05/11 17:07:49;;;;;;;5.32;2.83;;;;;;;;;;10282517;28;20027;-81
2023/05/11 17:12:50;;;;;;;2.95;2.38;;;;;;;;;;10287438;28;20038;-80
2023/05/11 17:17:52;;;;;;;4.45;2.90;;;;;;;;;;10285217;28;20064;-81
2023/05/11 17:22:53;;;;;;;18.88;5.93;;;;;;;;;;10287439;28;20038;-79
2023/05/11 17:27:54;;;;;;;40.22;15.95;;;;;;;;;;10289019;28;20050;-78
2023/05/11 17:32:55;;;;;;;88.07;40.45;;;;;;;;;;10281439;28;20117;-80
2023/05/11 17:37:56;;;;;;;5.18;3.08;;;;;;;;;;10280917;28;20126;-79
2023/05/11 17:42:57;;;;;;;6.47;2.60;;;;;;;;;;10280365;28;20644;-80
2023/05/11 17:47:58;;;;;;;4.70;3.22;;;;;;;;;;10280614;28;20058;-79
2023/05/11 17:52:59;;;;;;;5.50;3.20;;;;;;;;;;10282474;28;20031;-82
2023/05/11 17:58:00;;;;;;;3.97;2.50;;;;;;;;;;10281493;28;20402;-82
2023/05/11 18:03:01;;;;;;;6.88;3.22;;;;;;;;;;10278011;28;20026;-82
2023/05/11 18:08:02;;;;;;;5.07;2.40;;;;;;;;;;10281180;28;20029;-79
2023/05/11 18:13:03;;;;;;;7.80;3.50;;;;;;;;;;10280792;28;20034;-79
2023/05/11 18:18:04;;;;;;;6.57;2.97;;;;;;;;;;10279805;28;20046;-80
2023/05/11 18:23:05;;;;;;;5.72;2.83;;;;;;;;;;10281365;28;20045;-79
2023/05/11 18:28:07;;;;;;;5.25;2.70;;;;;;;;;;10277385;28;20030;-80
2023/05/11 18:33:08;;;;;;;6.43;2.92;;;;;;;;;;10279916;28;20043;-81
2023/05/11 18:38:09;;;;;;;8.23;3.30;;;;;;;;;;10281546;28;20443;-80
2023/05/11 18:43:10;;;;;;;5.20;3.10;;;;;;;;;;10278880;28;20483;-80
2023/05/11 18:48:11;;;;;;;6.47;3.45;;;;;;;;;;10277337;28;20054;-80
2023/05/11 18:53:12;;;;;;;7.57;3.70;;;;;;;;;;10270120;28;20042;-80
2023/05/11 18:58:14;;;;;;;5.30;3.47;;;;;;;;;;10288811;28;20138;-80
2023/05/11 19:03:15;;;;;;;7.63;3.35;;;;;;;;;;10281511;28;20449;-82
2023/05/11 19:08:16;;;;;;;5.93;3.42;;;;;;;;;;10269080;28;20081;-80
2023/05/11 19:13:17;;;;;;;6.93;3.85;;;;;;;;;;10275686;28;20470;-80
2023/05/11 19:18:19;;;;;;;6.72;3.88;;;;;;;;;;10270389;28;20042;-79
2023/05/11 19:23:20;;;;;;;6.30;3.83;;;;;;;;;;10276294;28;20026;-81
2023/05/11 19:28:21;;;;;;;7.35;4.00;;;;;;;;;;10261378;28;20074;-81
2023/05/11 19:33:22;;;;;;;7.22;3.83;;;;;;;;;;10276384;28;20026;-81
2023/05/11 19:38:23;;;;;;;7.47;4.25;;;;;;;;;;10276229;28;20402;-81
2023/05/11 19:43:24;;;;;;;8.82;4.28;;;;;;;;;;10274274;28;20030;-78
2023/05/11 19:48:25;;;;;;;9.15;4.20;;;;;;;;;;10272707;28;20166;-80
2023/05/11 19:53:27;;;;;;;7.55;3.88;;;;;;;;;;10268762;28;20046;-82
2023/05/11 19:58:28;;;;;;;6.72;3.85;;;;;;;;;;10268946;28;20054;-80
2023/05/11 20:03:29;;;;;;;9.38;4.35;;;;;;;;;;10258811;28;20027;-81
2023/05/11 20:08:30;;;;;;;11.48;4.50;;;;;;;;;;10273733;28;20130;-80
2023/05/11 20:13:31;;;;;;;10.27;4.53;;;;;;;;;;10264018;28;20023;-79
2023/05/11 20:18:32;;;;;;;4.85;3.70;;;;;;;;;;10270282;28;20141;-81
2023/05/11 20:23:33;;;;;;;6.57;4.30;;;;;;;;;;10272393;28;20086;-80
2023/05/11 20:28:34;;;;;;;6.13;4.20;;;;;;;;;;10287070;28;20046;-80
2023/05/11 20:33:35;;;;;;;8.48;4.10;;;;;;;;;;10284111;28;20042;-79
2023/05/11 20:38:36;;;;;;;7.45;3.90;;;;;;;;;;10281404;28;20580;-81
2023/05/11 20:43:37;;;;;;;7.30;3.97;;;;;;;;;;10281463;28;20130;-80
2023/05/11 20:48:38;;;;;;;6.88;3.58;;;;;;;;;;10266157;28;20030;-80
2023/05/11 20:53:39;;;;;;;10.02;3.78;;;;;;;;;;10284633;28;20410;-81
2023/05/11 20:58:41;;;;;;;9.25;4.75;;;;;;;;;;10285089;28;20066;-79
2023/05/11 21:03:42;;;;;;;10.75;4.90;;;;;;;;;;10270963;28;20525;-79
2023/05/11 21:08:43;;;;;;;6.90;4.07;;;;;;;;;;10284400;28;20038;-79
2023/05/11 21:13:44;;;;;;;8.50;4.43;;;;;;;;;;10284031;28;20114;-79
2023/05/11 21:18:45;;;;;;;10.40;4.70;;;;;;;;;;10282509;28;20053;-81
2023/05/11 21:23:46;;;;;;;8.02;4.25;;;;;;;;;;10284269;28;20047;-79
2023/05/11 21:28:47;;;;;;;8.55;4.05;;;;;;;;;;10284082;28;20058;-79
2023/05/11 21:33:48;;;;;;;7.60;4.20;;;;;;;;;;10281256;28;20138;-81
2023/05/11 21:38:50;;;;;;;5.43;3.70;;;;;;;;;;10283140;28;20042;-79
2023/05/11 21:43:51;;;;;;;8.35;4.93;;;;;;;;;;10283422;28;20038;-81
2023/05/11 21:48:52;;;;;;;9.50;4.75;;;;;;;;;;10281473;28;20422;-79
2023/05/11 21:53:53;;;;;;;10.65;5.32;;;;;;;;;;10283142;28;20058;-79
2023/05/11 21:58:55;;;;;;;11.48;4.85;;;;;;;;;;10282105;28;20050;-79
2023/05/11 22:03:58;;;;;;;10.98;5.03;;;;;;;;;;10281625;28;20113;-79
2023/05/11 22:08:59;;;;;;;11.70;5.25;;;;;;;;;;10281960;28;20483;-79
2023/05/11 22:14:00;;;;;;;12.50;4.80;;;;;;;;;;10275302;28;20065;-80
2023/05/11 22:19:01;;;;;;;12.77;5.30;;;;;;;;;;10280018;28;20047;-80
2023/05/11 22:24:04;;;;;;;9.15;5.13;;;;;;;;;;10281077;28;20057;-80
2023/05/11 22:29:05;;;;;;;7.60;4.72;;;;;;;;;;10281317;28;20043;-80
2023/05/11 22:34:06;;;;;;;9.23;4.50;;;;;;;;;;10278752;28;20022;-79
2023/05/11 22:39:07;;;;;;;7.38;3.80;;;;;;;;;;10279687;28;20047;-80
2023/05/11 22:44:08;;;;;;;7.38;4.03;;;;;;;;;;10279213;28;20039;-79
2023/05/11 22:49:09;;;;;;;9.15;4.10;;;;;;;;;;10279151;28;20491;-79
2023/05/11 22:54:12;;;;;;;7.47;4.63;;;;;;;;;;10280498;28;20122;-79
2023/05/11 22:59:13;;;;;;;9.73;4.30;;;;;;;;;;10279659;28;20054;-79
2023/05/11 23:04:14;;;;;;;7.57;4.50;;;;;;;;;;10278710;28;20030;-80
2023/05/11 23:09:15;;;;;;;8.73;4.25;;;;;;;;;;10280232;28;20669;-80
2023/05/11 23:14:16;;;;;;;8.93;4.32;;;;;;;;;;10279248;28;20050;-79
2023/05/11 23:19:17;;;;;;;6.45;3.75;;;;;;;;;;10265871;28;20133;-79
2023/05/11 23:24:18;;;;;;;8.25;3.97;;;;;;;;;;10279786;28;20038;-82
2023/05/11 23:29:19;;;;;;;10.55;4.88;;;;;;;;;;10278970;28;20027;-79
2023/05/11 23:34:20;;;;;;;6.85;4.43;;;;;;;;;;10278373;28;20058;-79
2023/05/11 23:39:21;;;;;;;10.15;4.10;;;;;;;;;;10275904;28;20041;-79
2023/05/11 23:44:22;;;;;;;8.55;4.07;;;;;;;;;;10279074;28;20529;-82
2023/05/11 23:49:23;;;;;;;11.80;4.95;;;;;;;;;;10277706;28;20034;-79
2023/05/11 23:54:24;;;;;;;10.00;4.05;;;;;;;;;;10283262;28;20265;-79
2023/05/11 23:59:25;;;;;;;9.50;4.35;;;;;;;;;;10285698;28;20059;-81
